Time;durP1;ratioP1;P1;durP2;ratioP2;P2;SDS_P1;SDS_P2;PMS_P1;PMS_P2;Temp;Humidity;BMP_temperature;BMP_pressure;BME280_temperature;BME280_humidity;BME280_pressure;Samples;Min_cycle;Max_cycle;Signal;HPM_P1;HPM_P2
2022/03/09 00:02:26;;;;;;;5.95;2.55;;;3.60;63.70;;;;;;5029583;28;20037;-44
2022/03/09 00:04:53;;;;;;;5.10;3.83;;;3.50;64.00;;;;;;5012576;28;20431;-44
2022/03/09 00:07:21;;;;;;;5.32;2.92;;;3.50;64.20;;;;;;5030737;28;20029;-44
2022/03/09 00:09:49;;;;;;;6.38;2.83;;;3.50;64.10;;;;;;5012665;28;20022;-43
2022/03/09 00:12:14;;;;;;;6.13;2.90;;;3.50;64.30;;;;;;5030326;28;20057;-44
2022/03/09 00:14:41;;;;;;;5.97;3.17;;;3.40;64.40;;;;;;5030245;28;20065;-43
2022/03/09 00:17:08;;;;;;;6.90;2.90;;;3.40;64.60;;;;;;5012813;28;20052;-48
2022/03/09 00:19:35;;;;;;;9.68;4.32;;;3.40;64.90;;;;;;5029901;28;20029;-44
2022/03/09 00:22:02;;;;;;;7.55;3.08;;;3.50;64.80;;;;;;5034340;28;20049;-44
2022/03/09 00:24:30;;;;;;;5.15;2.60;;;3.50;64.90;;;;;;5027880;28;20118;-44
2022/03/09 00:26:59;;;;;;;4.55;2.63;;;3.50;65.00;;;;;;5044376;28;20040;-44
2022/03/09 00:29:30;;;;;;;5.38;3.17;;;3.40;65.00;;;;;;5020979;28;20113;-47
2022/03/09 00:31:58;;;;;;;5.40;2.92;;;3.50;65.10;;;;;;5029420;28;20102;-44
2022/03/09 00:34:26;;;;;;;5.28;3.08;;;3.40;65.50;;;;;;5030354;28;20179;-45
2022/03/09 00:36:53;;;;;;;7.13;3.47;;;3.40;65.40;;;;;;5031987;28;20528;-42
2022/03/09 00:39:20;;;;;;;9.75;3.85;;;3.40;65.60;;;;;;5030741;28;20048;-45
2022/03/09 00:41:46;;;;;;;8.43;3.38;;;3.40;65.70;;;;;;5027383;28;20038;-46
2022/03/09 00:44:13;;;;;;;8.23;3.90;;;3.40;66.00;;;;;;5029931;28;20414;-46
2022/03/09 00:46:40;;;;;;;5.97;3.15;;;3.40;66.00;;;;;;5038174;28;20047;-48
2022/03/09 00:49:07;;;;;;;9.02;3.40;;;3.40;66.20;;;;;;5020704;28;20025;-44
2022/03/09 00:51:36;;;;;;;4.72;2.80;;;3.30;66.20;;;;;;4999280;28;20100;-45
2022/03/09 00:54:04;;;;;;;6.35;2.90;;;3.30;66.30;;;;;;5029773;28;20035;-44
2022/03/09 00:56:31;;;;;;;8.45;3.92;;;3.30;66.40;;;;;;5035178;28;20366;-43
2022/03/09 00:58:59;;;;;;;5.78;2.78;;;3.30;66.30;;;;;;5049709;28;20025;-46
2022/03/09 01:01:26;;;;;;;4.90;2.90;;;3.30;66.30;;;;;;5034882;28;20060;-45
2022/03/09 01:03:53;;;;;;;6.57;3.58;;;3.30;66.30;;;;;;5033899;28;20049;-47
2022/03/09 01:06:19;;;;;;;4.85;3.47;;;3.30;66.40;;;;;;5027061;28;20515;-43
2022/03/09 01:08:46;;;;;;;6.00;3.38;;;3.20;66.60;;;;;;5006930;28;20030;-46
2022/03/09 01:11:11;;;;;;;8.65;4.82;;;3.20;66.80;;;;;;5037213;28;20170;-46
2022/03/09 01:13:39;;;;;;;9.95;4.93;;;3.20;66.90;;;;;;5033506;28;20030;-45
2022/03/09 01:16:06;;;;;;;5.72;3.17;;;3.20;67.40;;;;;;5035583;28;20037;-44
2022/03/09 01:18:34;;;;;;;7.30;3.22;;;3.10;67.50;;;;;;5016343;28;20112;-45
2022/03/09 01:21:01;;;;;;;5.93;3.50;;;3.10;67.80;;;;;;5023759;28;20045;-45
2022/03/09 01:23:28;;;;;;;12.98;3.53;;;3.00;68.00;;;;;;5033568;28;20048;-43
2022/03/09 01:25:56;;;;;;;9.10;4.05;;;3.00;68.30;;;;;;5033496;28;20025;-43
2022/03/09 01:28:23;;;;;;;9.02;3.38;;;3.00;68.40;;;;;;5033210;28;20022;-43
2022/03/09 01:30:50;;;;;;;5.90;3.50;;;3.00;68.40;;;;;;5032140;28;20029;-44
2022/03/09 01:33:18;;;;;;;6.15;3.55;;;3.00;68.40;;;;;;4999783;28;20115;-43
2022/03/09 01:35:45;;;;;;;6.63;4.00;;;3.00;68.50;;;;;;5016448;28;20394;-44
2022/03/09 01:38:12;;;;;;;7.47;3.75;;;2.90;68.50;;;;;;5032937;28;20030;-43
2022/03/09 01:40:40;;;;;;;6.63;3.90;;;2.90;68.90;;;;;;5033075;28;20025;-46
2022/03/09 01:43:08;;;;;;;5.93;3.65;;;2.80;69.40;;;;;;5033017;28;20029;-44
2022/03/09 01:45:36;;;;;;;7.35;3.95;;;2.60;70.10;;;;;;5015146;28;20026;-44
2022/03/09 01:48:06;;;;;;;6.57;3.50;;;2.40;70.50;;;;;;5033020;28;20030;-43
2022/03/09 01:50:33;;;;;;;6.63;3.85;;;2.40;70.70;;;;;;5032790;28;20103;-43
2022/03/09 01:53:00;;;;;;;12.18;3.70;;;2.40;70.90;;;;;;5032799;28;20105;-43
2022/03/09 01:55:26;;;;;;;7.90;4.20;;;2.30;70.90;;;;;;5033107;28;20107;-44
2022/03/09 01:57:54;;;;;;;6.32;3.70;;;2.20;71.60;;;;;;5032669;28;20478;-43
2022/03/09 02:00:22;;;;;;;6.90;4.43;;;2.00;72.10;;;;;;5031439;28;20048;-46
2022/03/09 02:02:50;;;;;;;6.53;3.90;;;1.90;72.60;;;;;;5032873;28;20029;-44
2022/03/09 02:05:18;;;;;;;6.18;3.97;;;1.80;73.50;;;;;;5032776;28;20030;-44
2022/03/09 02:10:35;;;;;;;7.50;3.58;;;1.80;74.40;;;;;;5032268;28;20111;-44
2022/03/09 02:13:08;;;;;;;6.07;3.80;;;1.70;74.90;;;;;;5031479;28;20026;-44
2022/03/09 02:15:34;;;;;;;10.00;3.72;;;1.70;75.10;;;;;;5029308;28;20040;-45
2022/03/09 02:18:00;;;;;;;6.05;3.80;;;1.70;75.50;;;;;;5032343;28;20029;-45
2022/03/09 02:20:27;;;;;;;6.55;3.38;;;1.70;76.20;;;;;;5015286;28;20132;-44
2022/03/09 02:22:54;;;;;;;6.20;3.85;;;1.70;76.50;;;;;;5052233;28;20078;-44
2022/03/09 02:25:21;;;;;;;5.28;3.25;;;1.70;76.10;;;;;;5034681;28;20036;-45
2022/03/09 02:27:47;;;;;;;6.93;3.92;;;1.70;75.90;;;;;;5052213;28;20546;-44
2022/03/09 02:30:18;;;;;;;8.32;3.67;;;1.80;75.60;;;;;;5034176;28;20025;-45
2022/03/09 02:32:46;;;;;;;4.95;3.30;;;1.80;75.20;;;;;;5018912;28;20071;-46
2022/03/09 02:35:18;;;;;;;6.82;2.67;;;1.80;75.10;;;;;;5034885;28;20037;-49
2022/03/09 02:37:46;;;;;;;12.43;3.22;;;1.80;75.20;;;;;;5049219;28;20087;-44
2022/03/09 02:40:16;;;;;;;5.68;3.28;;;1.80;75.20;;;;;;5052018;28;20025;-44
2022/03/09 02:42:45;;;;;;;;;;;1.80;75.20;;;;;;5024042;28;20036;-45
2022/03/09 02:45:14;;;;;;;6.25;3.50;;;1.80;75.20;;;;;;5052267;28;19959;-45
2022/03/09 02:47:44;;;;;;;6.75;2.90;;;1.80;75.40;;;;;;5033763;28;20822;-47
2022/03/09 02:50:11;;;;;;;5.95;3.90;;;1.80;75.40;;;;;;5030142;28;20057;-44
2022/03/09 02:52:43;;;;;;;7.82;4.18;;;1.80;75.30;;;;;;5051576;28;20061;-44
2022/03/09 02:55:12;;;;;;;8.95;3.50;;;1.80;75.20;;;;;;5047582;28;20033;-44
2022/03/09 02:57:40;;;;;;;6.85;3.28;;;1.80;75.10;;;;;;5051266;28;20040;-43
2022/03/09 03:00:11;;;;;;;8.23;4.30;;;1.70;75.00;;;;;;5034076;28;20354;-48
2022/03/09 03:02:39;;;;;;;6.82;3.05;;;1.70;75.00;;;;;;5033933;28;20064;-44
2022/03/09 03:05:08;;;;;;;10.95;3.95;;;1.60;74.80;;;;;;5051314;28;20032;-48
2022/03/09 03:07:35;;;;;;;5.68;3.40;;;1.60;75.30;;;;;;5051311;28;20028;-46
2022/03/09 03:10:06;;;;;;;6.47;3.83;;;1.50;75.30;;;;;;5050527;28;20107;-44
2022/03/09 03:12:31;;;;;;;6.30;3.70;;;1.50;75.30;;;;;;5033286;28;20025;-43
2022/03/09 03:14:58;;;;;;;6.75;3.92;;;1.50;75.20;;;;;;5033149;28;20033;-46
2022/03/09 03:17:23;;;;;;;7.55;3.63;;;1.40;75.30;;;;;;5050749;28;20107;-44
2022/03/09 03:19:50;;;;;;;5.90;3.65;;;1.40;75.20;;;;;;5050871;28;20131;-45
2022/03/09 03:22:19;;;;;;;6.15;3.03;;;1.50;74.90;;;;;;5050739;28;20063;-43
2022/03/09 03:24:46;;;;;;;5.82;3.40;;;1.50;74.70;;;;;;5018073;28;20043;-46
2022/03/09 03:27:14;;;;;;;6.90;2.97;;;1.60;74.40;;;;;;5050781;28;20029;-49
2022/03/09 03:29:40;;;;;;;9.25;3.90;;;1.60;74.30;;;;;;5051046;28;20032;-44
2022/03/09 03:32:07;;;;;;;6.80;3.83;;;1.60;74.10;;;;;;5050952;28;20143;-49
2022/03/09 03:34:34;;;;;;;8.23;3.60;;;1.60;74.50;;;;;;5050801;28;20033;-48
2022/03/09 03:37:02;;;;;;;7.07;3.90;;;1.70;74.40;;;;;;5051185;28;20037;-46
2022/03/09 03:39:30;;;;;;;5.10;3.22;;;1.70;74.20;;;;;;5050797;28;20035;-46
2022/03/09 03:41:58;;;;;;;7.57;3.80;;;1.70;74.00;;;;;;5050494;28;20108;-44
2022/03/09 03:44:26;;;;;;;6.13;3.47;;;1.80;74.00;;;;;;5033242;28;20067;-44
2022/03/09 03:46:52;;;;;;;8.38;4.50;;;1.70;74.10;;;;;;5050705;28;20036;-44
2022/03/09 03:49:22;;;;;;;7.50;3.90;;;1.80;74.20;;;;;;5050564;28;20025;-48
2022/03/09 03:51:49;;;;;;;7.72;3.90;;;1.80;74.10;;;;;;5050464;28;20111;-46
2022/03/09 03:54:15;;;;;;;11.07;4.93;;;1.80;74.20;;;;;;5033094;28;20033;-45
2022/03/09 03:56:42;;;;;;;7.25;3.88;;;1.80;74.30;;;;;;5050190;28;20025;-45
2022/03/09 03:59:10;;;;;;;7.47;4.22;;;1.80;74.40;;;;;;5033212;28;20022;-47
2022/03/09 04:01:38;;;;;;;8.80;4.25;;;1.90;74.40;;;;;;5050258;28;20049;-44
2022/03/09 04:04:06;;;;;;;7.30;3.80;;;1.90;74.40;;;;;;5050384;28;20033;-45
2022/03/09 04:06:34;;;;;;;6.07;4.18;;;1.90;74.40;;;;;;5050012;28;20335;-45
2022/03/09 04:08:59;;;;;;;7.47;4.85;;;1.90;74.60;;;;;;5042445;28;20502;-46
2022/03/09 04:11:26;;;;;;;7.25;3.85;;;1.80;74.80;;;;;;5032118;28;20060;-44
2022/03/09 04:13:56;;;;;;;5.60;3.55;;;1.80;75.10;;;;;;5050381;28;20039;-44
2022/03/09 04:16:22;;;;;;;10.23;4.10;;;1.80;75.20;;;;;;5050371;28;20063;-45
2022/03/09 04:18:50;;;;;;;7.90;4.30;;;1.80;75.20;;;;;;5049976;28;20075;-44
2022/03/09 04:21:16;;;;;;;6.75;4.53;;;1.80;75.30;;;;;;5049728;28;20045;-45
2022/03/09 04:23:43;;;;;;;8.05;4.35;;;1.90;75.20;;;;;;5050007;28;20052;-45
2022/03/09 04:26:11;;;;;;;8.00;3.80;;;1.90;75.10;;;;;;5032325;28;20025;-45
2022/03/09 04:28:39;;;;;;;7.28;4.45;;;1.90;75.10;;;;;;5049938;28;20032;-46
2022/03/09 04:31:06;;;;;;;6.43;3.95;;;1.90;75.10;;;;;;5050076;28;20078;-45
2022/03/09 04:33:34;;;;;;;7.50;4.22;;;1.80;75.20;;;;;;5048700;28;20385;-45
2022/03/09 04:36:01;;;;;;;10.60;4.07;;;1.90;75.40;;;;;;5049393;28;20125;-48
2022/03/09 04:38:28;;;;;;;6.55;3.83;;;1.90;75.40;;;;;;5031535;28;20051;-43
2022/03/09 04:40:54;;;;;;;6.72;4.18;;;1.80;75.40;;;;;;5049326;28;20095;-45
2022/03/09 04:43:19;;;;;;;9.75;4.05;;;1.80;75.50;;;;;;5049816;28;20029;-45
2022/03/09 04:45:46;;;;;;;7.10;4.50;;;1.80;75.60;;;;;;5049502;28;20040;-46
2022/03/09 04:48:15;;;;;;;8.43;4.25;;;1.70;75.50;;;;;;5031501;28;20040;-44
2022/03/09 04:50:42;;;;;;;6.53;4.27;;;1.70;75.60;;;;;;5015885;28;20327;-43
2022/03/09 04:53:08;;;;;;;6.50;4.47;;;1.70;75.50;;;;;;5031823;28;20275;-45
2022/03/09 04:55:38;;;;;;;8.98;4.22;;;1.70;75.50;;;;;;5049773;28;20032;-44
2022/03/09 04:58:07;;;;;;;7.47;4.68;;;1.70;75.30;;;;;;5049465;28;20646;-44
2022/03/09 05:00:36;;;;;;;;;;;1.70;75.10;;;;;;5049173;28;20033;-46
2022/03/09 05:03:02;;;;;;;9.52;4.82;;;1.70;74.80;;;;;;5048925;28;19919;-44
2022/03/09 05:05:31;;;;;;;8.90;5.32;;;1.70;74.50;;;;;;5049250;28;20033;-43
2022/03/09 05:07:58;;;;;;;6.60;4.30;;;1.80;74.40;;;;;;5031560;28;20013;-44
2022/03/09 05:10:25;;;;;;;7.93;4.40;;;1.70;73.90;;;;;;5048966;28;20029;-44
2022/03/09 05:12:52;;;;;;;7.15;4.72;;;1.70;74.00;;;;;;5048504;28;20461;-46
2022/03/09 05:15:18;;;;;;;9.70;5.78;;;1.70;73.90;;;;;;5048787;28;20099;-45
2022/03/09 05:17:45;;;;;;;12.10;6.45;;;1.70;74.00;;;;;;5048919;28;20033;-44
2022/03/09 05:20:15;;;;;;;8.93;6.10;;;1.60;74.00;;;;;;5046983;28;20393;-45
2022/03/09 05:22:42;;;;;;;12.77;5.57;;;1.70;74.00;;;;;;5010024;28;20045;-46
2022/03/09 05:25:08;;;;;;;7.38;4.70;;;1.60;74.00;;;;;;5031641;28;20035;-44
2022/03/09 05:27:35;;;;;;;9.40;4.32;;;1.50;74.00;;;;;;5031150;28;20025;-48
2022/03/09 05:30:05;;;;;;;7.07;4.70;;;1.50;74.00;;;;;;5018093;28;20017;-45
2022/03/09 05:32:32;;;;;;;8.23;4.95;;;1.50;74.00;;;;;;5031137;28;20087;-46
2022/03/09 05:35:01;;;;;;;7.00;4.25;;;1.40;73.90;;;;;;5009828;28;20124;-46
2022/03/09 05:37:28;;;;;;;8.35;4.78;;;1.40;73.80;;;;;;5031521;28;20126;-44
2022/03/09 05:39:55;;;;;;;6.63;4.35;;;1.40;73.60;;;;;;5048086;28;20457;-43
2022/03/09 05:42:21;;;;;;;10.50;4.65;;;1.50;73.40;;;;;;5031424;28;20029;-46
2022/03/09 05:44:48;;;;;;;7.80;4.78;;;1.50;73.10;;;;;;5031462;28;20056;-44
2022/03/09 05:47:16;;;;;;;7.55;4.18;;;1.40;73.10;;;;;;5050555;28;20025;-43
2022/03/09 05:49:43;;;;;;;7.53;4.97;;;1.40;73.10;;;;;;5035129;28;20059;-49
2022/03/09 05:52:09;;;;;;;9.60;4.75;;;1.40;73.30;;;;;;5052727;28;20036;-43
2022/03/09 05:54:38;;;;;;;8.48;4.50;;;1.40;73.20;;;;;;5052711;28;20037;-46
2022/03/09 05:57:08;;;;;;;8.50;4.50;;;1.50;73.40;;;;;;5052920;28;20040;-44
2022/03/09 05:59:37;;;;;;;9.40;4.93;;;1.40;73.30;;;;;;5052607;28;20040;-44
2022/03/09 06:02:07;;;;;;;;;;;1.40;73.30;;;;;;5053026;28;20715;-46
2022/03/09 06:04:34;;;;;;;7.70;4.70;;;1.40;73.30;;;;;;5052562;28;19913;-47
2022/03/09 06:07:02;;;;;;;9.73;4.97;;;1.30;73.60;;;;;;5052342;28;20021;-47
2022/03/09 06:09:30;;;;;;;8.32;5.18;;;1.30;73.50;;;;;;5010275;28;20036;-47
2022/03/09 06:11:57;;;;;;;8.57;5.35;;;1.30;73.60;;;;;;5052435;28;20033;-48
2022/03/09 06:14:23;;;;;;;7.70;5.53;;;1.30;73.60;;;;;;5052374;28;20050;-44
2022/03/09 06:16:50;;;;;;;7.75;5.22;;;1.30;73.60;;;;;;5034527;28;20584;-45
2022/03/09 06:19:16;;;;;;;7.03;4.85;;;1.30;73.60;;;;;;5051954;28;20044;-49
2022/03/09 06:21:45;;;;;;;8.52;5.53;;;1.30;73.40;;;;;;5045631;28;20150;-47
2022/03/09 06:24:16;;;;;;;8.38;5.28;;;1.30;73.40;;;;;;5052087;28;20021;-49
2022/03/09 06:26:43;;;;;;;9.20;4.82;;;1.30;73.60;;;;;;5051707;28;20057;-48
2022/03/09 06:29:11;;;;;;;8.48;5.68;;;1.30;73.30;;;;;;5052091;28;20104;-45
2022/03/09 06:31:38;;;;;;;7.32;4.97;;;1.40;73.30;;;;;;5052011;28;20520;-44
2022/03/09 06:34:06;;;;;;;9.68;5.00;;;1.40;73.10;;;;;;5052055;28;20458;-44
2022/03/09 06:36:33;;;;;;;7.63;4.93;;;1.50;72.80;;;;;;5052121;28;20025;-44
2022/03/09 06:38:59;;;;;;;10.55;5.18;;;1.50;72.70;;;;;;5051728;28;20362;-45
2022/03/09 06:41:28;;;;;;;9.00;5.25;;;1.50;72.60;;;;;;5050460;28;20029;-44
2022/03/09 06:43:54;;;;;;;8.77;4.40;;;1.50;72.80;;;;;;5051852;28;20343;-46
2022/03/09 06:46:25;;;;;;;10.77;5.45;;;1.60;72.70;;;;;;5051820;28;20025;-46
2022/03/09 06:48:53;;;;;;;6.95;4.65;;;1.60;72.50;;;;;;5034931;28;20059;-44
2022/03/09 06:51:21;;;;;;;8.43;5.57;;;1.70;72.30;;;;;;5051873;28;20029;-44
2022/03/09 06:53:48;;;;;;;7.93;4.93;;;1.70;72.20;;;;;;5043699;28;20055;-46
2022/03/09 06:56:18;;;;;;;7.68;4.93;;;1.80;72.20;;;;;;5034005;28;20116;-45
2022/03/09 06:58:54;;;;;;;7.07;4.95;;;1.80;72.00;;;;;;5034181;28;20037;-45
2022/03/09 07:01:21;;;;;;;8.43;5.22;;;1.90;71.80;;;;;;5051722;28;20033;-46
2022/03/09 07:03:49;;;;;;;11.00;4.95;;;1.90;71.50;;;;;;5051368;28;20037;-45
2022/03/09 07:06:16;;;;;;;9.52;5.13;;;2.00;71.00;;;;;;5033206;28;20040;-44
2022/03/09 07:08:42;;;;;;;8.73;5.15;;;2.20;70.60;;;;;;5049409;28;20033;-44
2022/03/09 07:11:12;;;;;;;8.82;5.18;;;2.20;70.20;;;;;;5033475;28;20043;-44
2022/03/09 07:13:38;;;;;;;8.30;4.57;;;2.30;69.90;;;;;;5050990;28;20024;-46
2022/03/09 07:16:03;;;;;;;10.43;6.43;;;2.40;69.90;;;;;;5047963;28;20116;-45
2022/03/09 07:18:30;;;;;;;8.95;6.03;;;2.40;70.10;;;;;;5032999;28;20055;-43
2022/03/09 07:21:00;;;;;;;8.45;6.13;;;2.40;69.90;;;;;;5050717;28;20037;-44
2022/03/09 07:23:32;;;;;;;9.85;6.50;;;2.50;69.70;;;;;;5029695;28;20110;-44
2022/03/09 07:26:00;;;;;;;9.50;6.63;;;2.70;69.40;;;;;;5031089;28;20033;-44
2022/03/09 07:28:29;;;;;;;8.82;5.65;;;2.80;69.50;;;;;;5030755;28;20447;-43
2022/03/09 07:30:57;;;;;;;7.45;5.20;;;2.90;69.10;;;;;;5029355;28;20477;-45
2022/03/09 07:33:23;;;;;;;8.38;5.03;;;3.10;68.70;;;;;;5025513;28;20030;-44
2022/03/09 07:35:50;;;;;;;9.10;5.88;;;3.30;68.20;;;;;;5025967;28;20370;-48
2022/03/09 07:38:17;;;;;;;10.10;5.40;;;3.50;67.80;;;;;;5030849;28;20071;-43
2022/03/09 07:40:45;;;;;;;7.60;5.07;;;3.60;66.70;;;;;;5028751;28;20041;-44
2022/03/09 07:43:12;;;;;;;8.55;5.20;;;3.80;66.20;;;;;;5028903;28;20037;-43
2022/03/09 07:45:39;;;;;;;13.00;6.18;;;4.00;65.40;;;;;;5030566;28;20033;-44
2022/03/09 07:48:05;;;;;;;9.18;5.47;;;4.20;65.20;;;;;;5030481;28;20034;-44
2022/03/09 07:50:33;;;;;;;8.70;4.90;;;4.40;64.50;;;;;;5030676;28;20022;-47
2022/03/09 07:53:00;;;;;;;9.18;5.50;;;4.50;64.50;;;;;;5029049;28;20355;-44
2022/03/09 07:55:36;;;;;;;8.95;5.57;;;4.80;63.50;;;;;;5030164;28;20331;-46
2022/03/09 07:58:04;;;;;;;7.80;5.28;;;5.10;63.00;;;;;;5027690;28;20042;-45
2022/03/09 08:00:36;;;;;;;8.90;5.82;;;5.50;61.80;;;;;;5028369;28;20037;-46
2022/03/09 08:03:03;;;;;;;7.85;5.40;;;6.00;61.20;;;;;;5036296;28;20047;-43
2022/03/09 08:05:28;;;;;;;10.15;6.28;;;6.40;59.20;;;;;;5025371;28;20036;-44
2022/03/09 08:07:55;;;;;;;6.32;4.95;;;6.60;58.60;;;;;;5029155;28;20363;-44
2022/03/09 08:10:25;;;;;;;8.90;5.32;;;7.00;56.60;;;;;;5029256;28;20035;-44
2022/03/09 08:12:54;;;;;;;7.65;5.68;;;7.40;54.90;;;;;;5029216;28;20044;-46
2022/03/09 08:15:19;;;;;;;11.48;5.45;;;7.90;53.90;;;;;;5029695;28;20513;-43
2022/03/09 08:17:46;;;;;;;10.63;5.97;;;8.10;52.80;;;;;;5030217;28;20175;-42
2022/03/09 08:20:14;;;;;;;7.32;5.32;;;8.40;52.00;;;;;;5029628;28;20115;-45
2022/03/09 08:22:41;;;;;;;7.45;5.65;;;8.60;50.90;;;;;;5038796;28;20068;-43
2022/03/09 08:25:09;;;;;;;8.70;6.03;;;8.80;50.50;;;;;;5047599;28;20025;-44
2022/03/09 08:27:38;;;;;;;8.25;5.80;;;8.90;50.20;;;;;;5024626;28;20359;-44
2022/03/09 08:30:04;;;;;;;;;;;9.20;49.70;;;;;;5013921;28;20034;-45
2022/03/09 08:32:33;;;;;;;7.20;5.20;;;9.40;49.30;;;;;;5031635;28;20277;-46
2022/03/09 08:34:58;;;;;;;8.45;5.10;;;9.40;48.50;;;;;;5050070;28;20052;-45
2022/03/09 08:37:24;;;;;;;8.25;5.18;;;9.50;47.50;;;;;;5049960;28;20064;-43
2022/03/09 08:39:54;;;;;;;7.65;5.05;;;9.80;47.70;;;;;;5028843;28;20473;-44
2022/03/09 08:42:21;;;;;;;8.10;5.88;;;9.90;46.70;;;;;;5049807;28;20361;-43
2022/03/09 08:44:51;;;;;;;8.45;5.28;;;9.90;47.00;;;;;;5043769;28;20044;-49
2022/03/09 08:47:18;;;;;;;8.80;5.82;;;10.00;45.90;;;;;;5045415;28;20020;-45
2022/03/09 08:49:45;;;;;;;7.78;5.35;;;9.90;45.90;;;;;;5043281;28;20048;-43
2022/03/09 08:52:13;;;;;;;8.40;4.93;;;10.10;45.70;;;;;;5044686;28;20033;-43
2022/03/09 08:54:44;;;;;;;8.60;5.78;;;10.30;45.70;;;;;;5045630;28;20025;-46
2022/03/09 08:57:13;;;;;;;7.20;5.22;;;10.30;47.00;;;;;;5048173;28;20582;-46
2022/03/09 08:59:40;;;;;;;8.57;5.68;;;10.50;46.90;;;;;;5029349;28;20058;-44
2022/03/09 09:02:07;;;;;;;9.23;4.80;;;10.70;45.00;;;;;;5047068;28;20357;-42
2022/03/09 09:04:32;;;;;;;7.30;5.03;;;10.80;44.40;;;;;;5030044;28;20024;-44
2022/03/09 09:06:59;;;;;;;6.80;5.07;;;10.80;44.30;;;;;;5030234;28;20040;-46
2022/03/09 09:09:26;;;;;;;8.23;5.00;;;10.90;43.60;;;;;;5030589;28;20095;-44
2022/03/09 09:11:54;;;;;;;7.75;5.65;;;10.90;42.60;;;;;;5046635;28;20033;-48
2022/03/09 09:14:21;;;;;;;7.68;5.63;;;10.80;41.60;;;;;;5047635;28;20462;-44
2022/03/09 09:16:48;;;;;;;9.80;5.63;;;10.80;42.80;;;;;;5031128;28;20151;-43
2022/03/09 09:19:15;;;;;;;7.70;4.88;;;10.90;43.30;;;;;;5030484;28;20347;-44
2022/03/09 09:21:46;;;;;;;8.02;5.47;;;11.00;42.40;;;;;;5049263;28;20090;-44
2022/03/09 09:24:16;;;;;;;7.30;5.07;;;11.10;44.10;;;;;;5053047;28;20044;-46
2022/03/09 09:26:42;;;;;;;8.38;5.07;;;11.40;42.90;;;;;;5035058;28;20044;-44
2022/03/09 09:29:09;;;;;;;9.80;5.72;;;11.40;43.30;;;;;;5034476;28;20020;-46
2022/03/09 09:31:35;;;;;;;7.85;5.70;;;11.50;41.30;;;;;;5051587;28;20102;-44
2022/03/09 09:34:02;;;;;;;10.98;5.82;;;11.40;41.30;;;;;;5034858;28;20041;-44
2022/03/09 09:36:30;;;;;;;10.25;5.50;;;11.60;40.30;;;;;;5032359;28;20024;-46
2022/03/09 09:38:56;;;;;;;9.27;5.93;;;11.70;40.60;;;;;;5047894;28;20029;-45
2022/03/09 09:41:26;;;;;;;7.90;6.03;;;11.90;39.00;;;;;;5051048;28;20040;-47
2022/03/09 09:43:53;;;;;;;;;;;11.90;39.30;;;;;;5035193;28;20508;-46
2022/03/09 09:46:20;;;;;;;7.70;5.43;;;12.00;39.70;;;;;;5052162;28;20272;-45
2022/03/09 09:48:48;;;;;;;9.10;5.55;;;12.00;39.80;;;;;;5052341;28;20055;-44
2022/03/09 09:51:17;;;;;;;7.88;6.15;;;11.90;37.70;;;;;;5052184;28;20121;-44
2022/03/09 09:53:45;;;;;;;8.85;5.90;;;11.90;39.70;;;;;;5033951;28;20033;-44
2022/03/09 09:56:13;;;;;;;6.97;5.22;;;12.00;39.80;;;;;;5018615;28;20055;-46
2022/03/09 09:58:52;;;;;;;7.00;4.93;;;12.10;38.40;;;;;;5051737;28;20113;-45
2022/03/09 10:01:23;;;;;;;9.23;5.30;;;12.20;38.80;;;;;;5034643;28;20278;-44
2022/03/09 10:03:49;;;;;;;8.73;5.38;;;12.20;40.00;;;;;;5017501;28;20079;-48
2022/03/09 10:06:16;;;;;;;6.10;5.05;;;12.30;40.80;;;;;;5052279;28;20037;-44
2022/03/09 10:09:19;;;;;;;8.32;6.03;;;12.40;39.70;;;;;;5051897;28;20450;-44
2022/03/09 10:11:57;;;;;;;8.32;5.25;;;12.30;38.70;;;;;;5030648;28;20579;-44
2022/03/09 10:14:46;;;;;;;7.35;5.20;;;12.20;39.90;;;;;;5050215;28;20339;-45
2022/03/09 10:17:28;;;;;;;8.98;5.50;;;12.30;39.70;;;;;;5032069;28;20044;-45
2022/03/09 10:20:07;;;;;;;11.95;5.82;;;12.30;40.10;;;;;;5012981;28;20047;-44
2022/03/09 10:22:45;;;;;;;7.45;5.53;;;12.40;41.20;;;;;;5025387;28;20398;-46
2022/03/09 10:25:32;;;;;;;10.30;6.50;;;12.00;41.30;;;;;;5011991;28;20438;-49
2022/03/09 10:28:03;;;;;;;8.50;5.65;;;12.20;40.10;;;;;;5013937;28;20479;-48
2022/03/09 10:30:34;;;;;;;8.40;5.90;;;12.20;39.40;;;;;;5012032;28;20038;-48
2022/03/09 10:33:05;;;;;;;8.48;6.22;;;12.20;40.20;;;;;;4997574;28;20653;-43
2022/03/09 10:35:36;;;;;;;8.57;5.35;;;12.00;40.20;;;;;;5011429;28;20030;-46
2022/03/09 10:38:05;;;;;;;8.57;6.20;;;11.80;40.70;;;;;;5029629;28;20425;-46
2022/03/09 10:40:40;;;;;;;9.75;6.07;;;11.80;41.20;;;;;;5010892;28;20037;-45
2022/03/09 10:43:25;;;;;;;10.68;4.97;;;12.00;41.50;;;;;;5008858;28;20041;-44
2022/03/09 10:46:13;;;;;;;9.23;6.40;;;12.20;40.80;;;;;;5009733;28;20057;-44
2022/03/09 10:48:49;;;;;;;8.77;6.68;;;12.20;41.60;;;;;;5029635;28;20446;-43
2022/03/09 10:51:54;;;;;;;10.27;5.60;;;12.30;40.00;;;;;;5026346;28;20084;-43
2022/03/09 10:54:41;;;;;;;8.20;5.47;;;12.10;41.50;;;;;;5013877;28;20046;-45
2022/03/09 10:57:14;;;;;;;8.30;5.95;;;12.20;41.70;;;;;;5026230;28;20037;-46
2022/03/09 10:59:53;;;;;;;8.68;6.65;;;12.40;40.30;;;;;;5028150;28;20083;-45
2022/03/09 11:02:21;;;;;;;7.80;6.05;;;12.50;39.30;;;;;;4989612;28;20034;-44
2022/03/09 11:05:10;;;;;;;7.78;6.10;;;12.50;38.90;;;;;;4998766;28;20090;-47
2022/03/09 11:07:37;;;;;;;9.00;6.18;;;12.40;39.10;;;;;;5025679;28;20025;-47
2022/03/09 11:10:17;;;;;;;10.90;5.75;;;12.40;39.60;;;;;;5011825;28;20052;-45
2022/03/09 11:12:51;;;;;;;8.52;6.97;;;12.50;39.60;;;;;;5029100;28;20031;-43
2022/03/09 11:15:21;;;;;;;9.27;6.72;;;12.40;39.00;;;;;;5030185;28;20041;-43
2022/03/09 11:17:48;;;;;;;11.48;7.25;;;12.30;40.00;;;;;;5007777;28;20040;-46
2022/03/09 11:20:16;;;;;;;7.53;5.32;;;12.30;40.20;;;;;;5018760;28;20029;-44
2022/03/09 11:22:43;;;;;;;10.32;6.05;;;12.40;40.60;;;;;;5038636;28;20130;-45
2022/03/09 11:25:10;;;;;;;7.72;5.85;;;12.60;38.20;;;;;;5048727;28;20361;-46
2022/03/09 11:27:47;;;;;;;8.75;5.95;;;12.60;38.00;;;;;;5032589;28;20028;-48
2022/03/09 11:30:36;;;;;;;10.65;5.32;;;12.70;38.30;;;;;;5016555;28;20033;-46
2022/03/09 11:33:27;;;;;;;10.63;5.70;;;12.70;37.20;;;;;;5030911;28;20237;-44
2022/03/09 11:35:57;;;;;;;9.30;5.70;;;12.70;35.60;;;;;;5043616;28;20040;-49
2022/03/09 11:38:42;;;;;;;9.88;6.13;;;12.80;36.20;;;;;;5049773;28;20171;-45
2022/03/09 11:41:28;;;;;;;9.25;5.65;;;12.60;35.10;;;;;;5050357;28;20454;-43
2022/03/09 11:44:22;;;;;;;7.63;6.07;;;12.50;36.30;;;;;;5049838;28;20385;-45
2022/03/09 11:47:07;;;;;;;7.45;5.70;;;12.40;37.10;;;;;;5050008;28;20166;-47
2022/03/09 11:49:53;;;;;;;9.13;5.53;;;12.50;38.10;;;;;;5049936;28;20116;-46
2022/03/09 11:52:31;;;;;;;9.85;5.60;;;12.70;36.60;;;;;;5049473;28;20370;-45
2022/03/09 11:55:02;;;;;;;7.72;5.32;;;12.60;37.10;;;;;;5049669;28;20052;-45
2022/03/09 11:57:49;;;;;;;7.88;5.75;;;12.50;36.30;;;;;;5050195;28;20033;-44
2022/03/09 12:00:30;;;;;;;10.05;5.18;;;12.60;36.60;;;;;;5035331;28;20033;-46
2022/03/09 12:02:57;;;;;;;6.30;4.38;;;12.70;35.00;;;;;;5049565;28;20033;-48
2022/03/09 12:05:34;;;;;;;7.15;5.15;;;12.60;35.30;;;;;;5015617;28;20058;-44
2022/03/09 12:08:18;;;;;;;7.57;5.20;;;12.70;34.00;;;;;;5049516;28;20028;-47
2022/03/09 12:10:55;;;;;;;8.32;5.70;;;12.50;34.30;;;;;;5048653;28;20043;-45
2022/03/09 12:13:46;;;;;;;8.13;4.97;;;12.30;34.10;;;;;;5049024;28;20083;-45
2022/03/09 12:16:22;;;;;;;8.63;6.25;;;12.20;33.30;;;;;;5049173;28;20486;-45
2022/03/09 12:19:01;;;;;;;9.35;5.35;;;12.20;33.90;;;;;;5048863;28;20041;-44
2022/03/09 12:21:26;;;;;;;9.00;6.20;;;12.20;34.70;;;;;;5038225;28;20033;-47
2022/03/09 12:24:14;;;;;;;11.18;6.53;;;12.20;34.70;;;;;;5048683;28;20120;-48
2022/03/09 12:26:47;;;;;;;9.15;6.30;;;12.20;35.00;;;;;;5046827;28;20057;-44
2022/03/09 12:29:28;;;;;;;6.70;5.68;;;12.20;35.80;;;;;;5047473;28;20112;-44
2022/03/09 12:32:13;;;;;;;7.53;5.18;;;12.20;36.90;;;;;;5046940;28;20061;-45
2022/03/09 12:35:04;;;;;;;7.80;5.95;;;12.10;36.10;;;;;;5049328;28;20074;-44
2022/03/09 12:37:33;;;;;;;8.52;6.55;;;12.00;36.80;;;;;;5048999;28;20035;-47
2022/03/09 12:40:02;;;;;;;7.18;5.55;;;12.00;37.40;;;;;;5049348;28;20021;-44
2022/03/09 12:42:31;;;;;;;9.75;6.38;;;12.00;37.30;;;;;;5049218;28;20024;-45
2022/03/09 12:44:59;;;;;;;8.32;5.60;;;11.90;36.50;;;;;;5024073;28;20029;-46
2022/03/09 12:47:26;;;;;;;9.98;6.35;;;11.80;37.90;;;;;;5048873;28;20041;-43
2022/03/09 12:49:56;;;;;;;7.55;5.60;;;11.90;38.80;;;;;;5045446;28;20028;-43
2022/03/09 12:52:27;;;;;;;7.10;5.50;;;12.00;39.20;;;;;;5031797;28;20049;-44
2022/03/09 12:54:55;;;;;;;7.95;5.85;;;12.00;38.50;;;;;;5048114;28;20053;-46
2022/03/09 12:57:30;;;;;;;8.80;6.18;;;11.90;38.90;;;;;;5029450;28;20031;-44
2022/03/09 13:00:16;;;;;;;12.40;6.65;;;11.80;37.90;;;;;;5048654;28;20037;-46
2022/03/09 13:02:55;;;;;;;10.52;5.63;;;11.80;38.40;;;;;;5042125;28;20481;-44
2022/03/09 13:05:40;;;;;;;8.02;5.45;;;11.80;37.20;;;;;;5032024;28;20052;-43
2022/03/09 13:08:08;;;;;;;6.70;5.53;;;11.80;36.30;;;;;;5047394;28;20048;-43
2022/03/09 13:10:52;;;;;;;7.28;5.10;;;11.80;36.80;;;;;;5048554;28;20044;-44